Time;durP1;ratioP1;P1;durP2;ratioP2;P2;SDS_P1;SDS_P2;PMS_P1;PMS_P2;Temp;Humidity;BMP_temperature;BMP_pressure;BME280_temperature;BME280_humidity;BME280_pressure;Samples;Min_cycle;Max_cycle;Signal;HPM_P1;HPM_P2
2024/04/10 00:01:04;;;;;;;89.83;84.83;;;22.30;1.00;;;;;;2610188;54;20419;-65
2024/04/10 00:03:31;;;;;;;90.33;85.33;;;22.30;1.00;;;;;;2609005;54;20427;-67
2024/04/10 00:05:58;;;;;;;89.47;84.40;;;22.30;1.00;;;;;;2609291;54;20580;-60
2024/04/10 00:08:26;;;;;;;90.67;85.57;;;22.30;1.00;;;;;;2610245;47;20420;-60
2024/04/10 00:10:52;;;;;;;89.37;84.37;;;22.30;1.00;;;;;;2613100;54;20392;-60
2024/04/10 00:13:18;;;;;;;89.30;84.40;;;22.30;1.00;;;;;;2609900;47;20424;-60
2024/04/10 00:15:43;;;;;;;88.50;83.60;;;22.30;1.00;;;;;;2610291;54;20418;-67
2024/04/10 00:18:09;;;;;;;89.40;84.40;;;22.30;1.00;;;;;;2610648;54;20428;-66
2024/04/10 00:20:36;;;;;;;90.57;85.57;;;22.30;1.00;;;;;;2610819;47;20669;-67
2024/04/10 00:23:05;;;;;;;89.43;84.43;;;22.30;1.00;;;;;;2610527;54;20473;-67
2024/04/10 00:25:31;;;;;;;90.03;84.93;;;22.30;1.00;;;;;;2610834;54;20416;-67
2024/04/10 00:28:00;;;;;;;89.40;84.40;;;22.30;1.00;;;;;;2611082;54;20444;-66
2024/04/10 00:30:26;;;;;;;90.60;85.50;;;22.20;1.00;;;;;;2611119;54;20441;-66
2024/04/10 00:32:52;;;;;;;91.00;85.80;;;22.20;1.00;;;;;;2610802;54;20522;-66
2024/04/10 00:35:18;;;;;;;89.40;84.40;;;22.20;1.00;;;;;;2610950;54;20416;-66
2024/04/10 00:37:44;;;;;;;89.50;84.50;;;22.20;1.00;;;;;;2610193;54;20418;-61
2024/04/10 00:40:10;;;;;;;90.27;85.17;;;22.20;1.00;;;;;;2610667;54;20283;-61
2024/04/10 00:42:35;;;;;;;89.80;84.80;;;22.20;1.00;;;;;;2610009;54;20724;-59
2024/04/10 00:45:01;;;;;;;89.57;84.57;;;22.20;1.00;;;;;;2610886;54;20478;-61
2024/04/10 00:47:28;;;;;;;90.50;85.50;;;22.20;1.00;;;;;;2610423;54;20262;-61
2024/04/10 00:49:54;;;;;;;90.00;85.00;;;22.20;1.00;;;;;;2610634;54;20173;-61
2024/04/10 00:52:20;;;;;;;89.73;84.83;;;22.20;1.00;;;;;;2610381;54;20420;-60
2024/04/10 00:54:46;;;;;;;91.40;86.20;;;22.20;1.00;;;;;;2610576;54;20225;-61
2024/04/10 00:57:12;;;;;;;88.83;83.90;;;22.20;1.00;;;;;;2610376;54;20178;-61
2024/04/10 00:59:38;;;;;;;90.20;85.20;;;22.20;1.00;;;;;;2609466;54;20520;-61
2024/04/10 01:02:05;;;;;;;89.27;84.37;;;22.20;1.00;;;;;;2608385;47;20254;-61
2024/04/10 01:04:31;;;;;;;89.13;84.23;;;22.20;1.00;;;;;;2608578;54;20435;-61
2024/04/10 01:06:56;;;;;;;90.23;85.17;;;22.20;1.00;;;;;;2608811;39;20822;-61
2024/04/10 01:09:22;;;;;;;88.87;83.87;;;22.20;1.00;;;;;;2610010;54;20407;-61
2024/04/10 01:11:48;;;;;;;89.67;84.60;;;22.20;1.00;;;;;;2610585;54;20680;-61
2024/04/10 01:14:14;;;;;;;91.30;86.00;;;22.20;1.00;;;;;;2613752;47;20166;-61
2024/04/10 01:16:39;;;;;;;89.23;84.27;;;22.20;1.00;;;;;;2613920;47;20410;-64
2024/04/10 01:19:06;;;;;;;89.50;84.60;;;22.20;1.00;;;;;;2610625;47;20167;-64
2024/04/10 01:21:32;;;;;;;90.90;85.80;;;22.20;1.00;;;;;;2610293;54;20254;-64
2024/04/10 01:23:58;;;;;;;88.70;83.80;;;22.20;1.00;;;;;;2611498;39;20778;-64
2024/04/10 01:26:23;;;;;;;90.93;85.73;;;22.20;1.00;;;;;;2609653;47;20454;-64
2024/04/10 01:28:49;;;;;;;88.70;83.80;;;22.20;1.00;;;;;;2610327;54;20173;-63
2024/04/10 01:31:15;;;;;;;90.53;85.43;;;22.20;1.00;;;;;;2610413;54;20203;-63
2024/04/10 01:33:40;;;;;;;90.83;85.73;;;22.20;1.00;;;;;;2610422;54;20675;-62
2024/04/10 01:36:07;;;;;;;90.07;85.07;;;22.20;1.00;;;;;;2610260;54;20700;-62
2024/04/10 01:38:33;;;;;;;89.40;84.40;;;22.20;1.00;;;;;;2610168;54;20212;-63
2024/04/10 01:40:59;;;;;;;90.90;85.80;;;22.20;1.00;;;;;;2610823;47;20515;-62
2024/04/10 01:43:25;;;;;;;90.73;85.63;;;22.20;1.00;;;;;;2611014;39;20752;-62
2024/04/10 01:45:51;;;;;;;91.00;85.77;;;22.20;1.00;;;;;;2610700;54;20689;-65
2024/04/10 01:48:17;;;;;;;90.67;85.57;;;22.20;1.00;;;;;;2611244;54;20499;-66
2024/04/10 01:50:44;;;;;;;91.77;86.47;;;22.20;1.00;;;;;;2611107;54;21066;-65
2024/04/10 01:53:10;;;;;;;90.30;85.20;;;22.30;1.00;;;;;;2611179;39;20620;-68
2024/04/10 01:55:36;;;;;;;90.83;85.63;;;22.30;1.00;;;;;;2610107;54;20415;-66
2024/04/10 01:58:02;;;;;;;89.70;84.70;;;22.40;1.00;;;;;;2611090;54;20771;-65
2024/04/10 02:00:28;;;;;;;90.77;85.77;;;22.40;1.00;;;;;;2609130;54;20231;-66
2024/04/10 02:02:54;;;;;;;91.00;85.90;;;22.50;1.00;;;;;;2609148;47;21009;-66
2024/04/10 02:05:20;;;;;;;90.70;85.70;;;22.50;1.00;;;;;;2609125;54;20423;-68
2024/04/10 02:07:46;;;;;;;90.23;85.13;;;22.50;1.00;;;;;;2609998;54;20258;-66
2024/04/10 02:10:11;;;;;;;89.60;84.70;;;22.50;1.00;;;;;;2610805;54;20494;-66
2024/04/10 02:12:37;;;;;;;90.73;85.53;;;22.60;1.00;;;;;;2610713;54;20772;-66
2024/04/10 02:15:03;;;;;;;88.57;83.67;;;22.60;1.00;;;;;;2613705;54;20174;-66
2024/04/10 02:17:29;;;;;;;88.37;83.47;;;22.60;1.00;;;;;;2611323;47;20265;-66
2024/04/10 02:19:54;;;;;;;89.10;84.20;;;22.50;1.00;;;;;;2610516;47;20418;-65
2024/04/10 02:22:20;;;;;;;89.30;84.40;;;22.50;1.00;;;;;;2611694;54;20158;-65
2024/04/10 02:24:47;;;;;;;89.70;84.70;;;22.50;1.00;;;;;;2611100;54;20186;-66
2024/04/10 02:27:12;;;;;;;88.83;83.93;;;22.50;1.00;;;;;;2611183;54;20174;-67
2024/04/10 02:29:38;;;;;;;88.80;83.90;;;22.40;1.00;;;;;;2610173;47;21236;-66
2024/04/10 02:32:04;;;;;;;89.20;84.20;;;22.40;1.00;;;;;;2610796;54;20174;-67
2024/04/10 02:34:30;;;;;;;88.87;83.97;;;22.40;1.00;;;;;;2611094;54;20171;-66
2024/04/10 02:36:55;;;;;;;89.60;84.60;;;22.30;1.00;;;;;;2611887;54;20452;-74
2024/04/10 02:39:21;;;;;;;90.50;85.50;;;22.40;1.00;;;;;;2611352;54;20166;-74
2024/04/10 02:41:48;;;;;;;89.50;84.50;;;22.40;1.00;;;;;;2612480;54;20963;-73
2024/04/10 02:44:14;;;;;;;89.63;84.63;;;22.40;1.00;;;;;;2613830;47;20177;-72
2024/04/10 02:46:39;;;;;;;88.83;83.93;;;22.30;1.00;;;;;;2611760;54;20415;-72
2024/04/10 02:49:05;;;;;;;89.40;84.50;;;22.30;1.00;;;;;;2611667;54;20173;-74
2024/04/10 02:51:31;;;;;;;88.43;83.63;;;22.30;1.00;;;;;;2611773;54;20163;-74
2024/04/10 02:53:56;;;;;;;87.93;83.13;;;22.30;1.00;;;;;;2611317;47;20198;-74
2024/04/10 02:56:22;;;;;;;88.20;83.40;;;22.20;1.00;;;;;;2611317;47;20174;-66
2024/04/10 02:58:48;;;;;;;88.30;83.50;;;22.20;1.00;;;;;;2611012;47;20194;-66
2024/04/10 03:01:14;;;;;;;88.53;83.63;;;22.20;1.00;;;;;;2610628;47;20206;-65
2024/04/10 03:03:40;;;;;;;88.20;83.40;;;22.20;1.00;;;;;;2611790;54;20419;-67
2024/04/10 03:06:07;;;;;;;89.53;84.53;;;22.20;1.00;;;;;;2611235;39;20824;-67
2024/04/10 03:08:34;;;;;;;89.47;84.47;;;22.20;1.00;;;;;;2613979;54;20171;-66
2024/04/10 03:11:01;;;;;;;89.47;84.37;;;22.20;1.00;;;;;;2611510;39;20804;-64
2024/04/10 03:13:27;;;;;;;89.23;84.13;;;22.20;1.00;;;;;;2610840;54;20443;-66
2024/04/10 03:15:53;;;;;;;88.57;83.57;;;22.20;1.00;;;;;;2611124;54;21565;-66
2024/04/10 03:18:19;;;;;;;88.67;83.67;;;22.10;1.00;;;;;;2610942;54;20507;-66
2024/04/10 03:20:45;;;;;;;89.93;84.83;;;22.10;1.00;;;;;;2611556;39;20578;-65
2024/04/10 03:23:12;;;;;;;90.10;85.00;;;22.10;1.00;;;;;;2611476;54;20532;-66
2024/04/10 03:25:37;;;;;;;90.80;85.67;;;22.10;1.00;;;;;;2612183;39;20584;-66
2024/04/10 03:28:03;;;;;;;89.47;84.47;;;22.10;1.00;;;;;;2611337;54;20430;-67
2024/04/10 03:30:29;;;;;;;87.13;82.33;;;22.10;1.00;;;;;;2612475;54;20197;-66
2024/04/10 03:32:55;;;;;;;90.13;85.13;;;22.10;1.00;;;;;;2611067;54;20977;-66
2024/04/10 03:35:20;;;;;;;90.10;85.10;;;22.10;1.00;;;;;;2611299;54;20155;-66
2024/04/10 03:37:47;;;;;;;89.70;84.70;;;22.10;1.00;;;;;;2611536;39;20803;-66
2024/04/10 03:40:13;;;;;;;89.53;84.43;;;22.10;1.00;;;;;;2611120;39;20536;-67
2024/04/10 03:42:39;;;;;;;90.50;85.30;;;22.10;1.00;;;;;;2610763;47;20442;-66
2024/04/10 03:45:05;;;;;;;88.77;83.77;;;22.00;1.00;;;;;;2610547;54;20501;-68
2024/04/10 03:47:31;;;;;;;89.00;84.07;;;22.00;1.00;;;;;;2611069;46;20431;-59
2024/04/10 03:49:57;;;;;;;89.60;84.60;;;22.00;1.00;;;;;;2610131;54;20531;-59
2024/04/10 03:52:23;;;;;;;87.97;83.07;;;22.00;1.00;;;;;;2610923;54;20265;-59
2024/04/10 03:54:49;;;;;;;89.20;84.20;;;22.00;1.00;;;;;;2611065;39;20498;-59
2024/04/10 03:57:14;;;;;;;89.40;84.40;;;22.00;1.00;;;;;;2610805;54;20268;-60
2024/04/10 03:59:40;;;;;;;89.50;84.50;;;22.00;1.00;;;;;;2609534;47;20162;-59
2024/04/10 04:02:06;;;;;;;89.80;84.70;;;22.10;1.00;;;;;;2609017;54;20218;-61
2024/04/10 04:04:32;;;;;;;89.70;84.60;;;22.10;1.00;;;;;;2612597;54;20170;-61
2024/04/10 04:06:57;;;;;;;88.83;83.73;;;22.10;1.00;;;;;;2610807;54;20238;-65
2024/04/10 04:09:23;;;;;;;87.80;82.90;;;22.20;1.00;;;;;;2611015;54;20170;-65
2024/04/10 04:11:49;;;;;;;88.80;83.70;;;22.20;1.00;;;;;;2611428;47;20171;-65
2024/04/10 04:14:15;;;;;;;89.50;84.30;;;22.20;1.00;;;;;;2611267;54;20566;-66
2024/04/10 04:16:40;;;;;;;90.63;85.33;;;22.10;1.00;;;;;;2611944;54;20159;-64
2024/04/10 04:19:06;;;;;;;89.40;84.40;;;22.10;1.00;;;;;;2611181;54;20167;-62
2024/04/10 04:21:32;;;;;;;87.97;83.07;;;22.20;1.00;;;;;;2611335;54;20194;-66
2024/04/10 04:23:58;;;;;;;89.40;84.30;;;22.20;1.00;;;;;;2611147;54;20214;-64
2024/04/10 04:26:25;;;;;;;88.97;83.87;;;22.20;1.00;;;;;;2610619;54;20201;-65
2024/04/10 04:28:51;;;;;;;88.80;83.70;;;22.10;1.00;;;;;;2611995;39;20960;-63
2024/04/10 04:31:17;;;;;;;90.10;84.90;;;22.10;1.00;;;;;;2610860;54;21269;-65
2024/04/10 04:33:43;;;;;;;88.30;83.30;;;22.10;1.00;;;;;;2611405;54;20415;-65
2024/04/10 04:36:10;;;;;;;88.10;83.10;;;22.10;1.00;;;;;;2611275;54;20830;-66
2024/04/10 04:38:39;;;;;;;88.60;83.60;;;22.00;1.00;;;;;;2611478;39;20773;-65
2024/04/10 04:41:05;;;;;;;88.33;83.30;;;22.10;1.00;;;;;;2610955;49;20416;-65
2024/04/10 04:43:30;;;;;;;93.37;87.53;;;22.00;1.00;;;;;;2612298;54;20422;-65
2024/04/10 04:45:56;;;;;;;90.10;84.90;;;22.00;1.00;;;;;;2611763;54;20442;-65
2024/04/10 04:48:22;;;;;;;89.80;84.70;;;22.00;1.00;;;;;;2610660;47;20724;-65
2024/04/10 04:50:48;;;;;;;89.03;84.03;;;22.00;1.00;;;;;;2611232;54;20183;-67
2024/04/10 04:53:15;;;;;;;88.60;83.70;;;22.00;1.00;;;;;;2610916;51;20511;-66
2024/04/10 04:55:43;;;;;;;88.10;83.20;;;22.00;1.00;;;;;;2611132;47;20487;-67
2024/04/10 04:58:10;;;;;;;88.60;83.60;;;22.00;1.00;;;;;;2610936;47;20423;-67
2024/04/10 05:00:37;;;;;;;88.87;83.77;;;22.00;1.00;;;;;;2609609;53;20444;-66
2024/04/10 05:03:03;;;;;;;88.67;83.57;;;22.00;1.00;;;;;;2609060;54;20411;-67
2024/04/10 05:05:33;;;;;;;88.90;83.70;;;22.00;1.00;;;;;;2609383;39;20802;-68
2024/04/10 05:07:59;;;;;;;88.80;83.70;;;22.00;1.00;;;;;;2610907;54;20403;-68
2024/04/10 05:10:26;;;;;;;88.93;83.83;;;22.00;1.00;;;;;;2610725;54;20420;-67
2024/04/10 05:12:51;;;;;;;87.70;82.70;;;22.00;1.00;;;;;;2611543;39;20900;-68
2024/04/10 05:15:18;;;;;;;87.77;82.77;;;22.00;1.00;;;;;;2611665;54;20420;-61
2024/04/10 05:17:46;;;;;;;89.80;84.70;;;22.00;1.00;;;;;;2612789;31;20628;-66
2024/04/10 05:20:14;;;;;;;89.03;83.93;;;22.00;1.00;;;;;;2611154;39;21076;-66
2024/04/10 05:22:41;;;;;;;90.10;84.90;;;22.00;1.00;;;;;;2611007;54;20964;-66
2024/04/10 05:25:09;;;;;;;88.37;83.27;;;22.00;1.00;;;;;;2611185;54;20400;-65
2024/04/10 05:27:37;;;;;;;88.40;83.40;;;22.00;1.00;;;;;;2610677;54;20423;-66
2024/04/10 05:30:09;;;;;;;89.30;84.20;;;22.00;1.00;;;;;;2610912;51;20419;-65
2024/04/10 05:32:36;;;;;;;90.20;85.00;;;22.00;1.00;;;;;;2611218;54;20423;-66
2024/04/10 05:35:07;;;;;;;88.80;83.80;;;22.00;1.00;;;;;;2610904;47;20546;-66
2024/04/10 05:37:33;;;;;;;89.00;83.90;;;22.00;1.00;;;;;;2610606;47;20455;-66
2024/04/10 05:40:05;;;;;;;90.17;84.90;;;22.00;1.00;;;;;;2611351;54;20403;-66
2024/04/10 05:42:35;;;;;;;88.67;83.57;;;22.00;1.00;;;;;;2610690;54;20959;-66
2024/04/10 05:45:01;;;;;;;88.37;83.27;;;22.00;1.00;;;;;;2611155;52;20431;-66
2024/04/10 05:47:26;;;;;;;88.90;83.80;;;22.00;1.00;;;;;;2611037;54;20395;-64
2024/04/10 05:49:53;;;;;;;90.30;85.20;;;22.10;1.00;;;;;;2610680;39;20903;-66
2024/04/10 05:52:19;;;;;;;86.23;81.23;;;22.20;1.00;;;;;;2607477;47;20258;-66
2024/04/10 05:54:53;;;;;;;87.93;82.83;;;22.30;1.00;;;;;;2609515;54;20462;-65
2024/04/10 05:57:21;;;;;;;90.13;84.93;;;22.30;1.00;;;;;;2611481;54;20237;-61
2024/04/10 05:59:51;;;;;;;91.87;86.53;;;21.80;1.00;;;;;;2609516;39;20862;-61
2024/04/10 06:02:17;;;;;;;91.90;86.50;;;20.80;1.00;;;;;;2609834;47;20435;-61
2024/04/10 06:04:42;;;;;;;91.37;86.10;;;19.80;1.00;;;;;;2609995;54;20411;-62
2024/04/10 06:07:08;;;;;;;92.40;87.10;;;19.80;1.00;;;;;;2609990;54;20162;-61
2024/04/10 06:09:34;;;;;;;89.90;84.80;;;20.20;1.00;;;;;;2610059;54;20162;-61
2024/04/10 06:11:59;;;;;;;92.07;86.77;;;20.50;1.00;;;;;;2609108;47;20690;-61
2024/04/10 06:14:25;;;;;;;90.33;85.13;;;20.80;1.00;;;;;;2609936;54;20188;-61
2024/04/10 06:16:51;;;;;;;90.80;85.60;;;21.10;1.00;;;;;;2609191;54;20155;-60
2024/04/10 06:19:16;;;;;;;88.77;83.67;;;21.30;1.00;;;;;;2609858;47;20427;-61
2024/04/10 06:21:42;;;;;;;89.30;84.10;;;21.40;1.00;;;;;;2610393;54;20246;-61
2024/04/10 06:24:08;;;;;;;90.50;85.20;;;21.50;1.00;;;;;;2609987;49;20692;-61
2024/04/10 06:26:37;;;;;;;90.80;85.50;;;21.60;1.00;;;;;;2610217;54;20223;-67
2024/04/10 06:29:02;;;;;;;90.67;85.47;;;21.70;1.00;;;;;;2611277;54;20212;-67
2024/04/10 06:31:28;;;;;;;90.40;85.20;;;21.70;1.00;;;;;;2610218;51;20399;-67
2024/04/10 06:33:54;;;;;;;90.27;85.10;;;21.80;1.00;;;;;;2610367;47;20162;-67
2024/04/10 06:36:19;;;;;;;90.33;85.13;;;21.80;1.00;;;;;;2610790;54;20195;-67
2024/04/10 06:38:45;;;;;;;90.40;85.20;;;21.80;1.00;;;;;;2610586;54;20763;-66
2024/04/10 06:41:11;;;;;;;91.10;85.90;;;21.90;1.00;;;;;;2610781;54;20191;-66
2024/04/10 06:43:36;;;;;;;90.30;85.10;;;21.90;1.00;;;;;;2609905;39;20477;-67
2024/04/10 06:46:05;;;;;;;90.50;85.20;;;22.00;1.00;;;;;;2609935;54;20174;-67
2024/04/10 06:48:31;;;;;;;89.87;84.67;;;21.90;1.00;;;;;;2610249;54;20163;-67
2024/04/10 06:51:03;;;;;;;90.40;85.17;;;21.90;1.00;;;;;;2613642;54;20434;-68
2024/04/10 06:53:29;;;;;;;90.70;85.50;;;21.90;1.00;;;;;;2613341;39;20850;-67
2024/04/10 06:55:59;;;;;;;90.90;85.63;;;21.90;1.00;;;;;;2610972;47;20431;-66
2024/04/10 06:58:26;;;;;;;90.70;85.40;;;21.90;1.00;;;;;;2608585;47;20430;-66
2024/04/10 07:01:10;;;;;;;90.97;85.77;;;22.00;1.00;;;;;;2610325;47;20439;-67
2024/04/10 07:03:37;;;;;;;90.17;84.97;;;22.00;1.00;;;;;;2611215;54;20437;-67
2024/04/10 07:06:07;;;;;;;90.00;84.80;;;22.00;1.00;;;;;;2613121;54;20411;-61
2024/04/10 07:08:38;;;;;;;90.43;85.23;;;22.00;1.00;;;;;;2611325;54;20437;-60
2024/04/10 07:11:11;;;;;;;90.47;85.27;;;22.00;1.00;;;;;;2613340;47;20494;-60
2024/04/10 07:13:38;;;;;;;90.23;85.03;;;22.00;1.00;;;;;;2611055;39;20829;-60
2024/04/10 07:16:04;;;;;;;91.57;86.27;;;22.10;1.00;;;;;;2610494;54;20510;-61
2024/04/10 07:18:31;;;;;;;91.53;86.23;;;22.10;1.00;;;;;;2610495;54;21012;-61
2024/04/10 07:21:03;;;;;;;91.10;85.80;;;22.10;1.00;;;;;;2613096;54;20419;-61
2024/04/10 07:23:30;;;;;;;91.67;86.30;;;22.10;1.00;;;;;;2611267;47;21337;-60
2024/04/10 07:26:15;;;;;;;91.07;85.87;;;22.10;1.00;;;;;;2611254;47;20415;-61
2024/04/10 07:28:45;;;;;;;91.20;86.00;;;22.10;1.00;;;;;;2613111;39;20813;-60
2024/04/10 07:31:13;;;;;;;91.67;86.30;;;22.10;1.00;;;;;;2613525;54;20498;-61
2024/04/10 07:33:39;;;;;;;91.10;85.90;;;22.20;1.00;;;;;;2612080;47;20446;-61
2024/04/10 07:36:14;;;;;;;90.33;85.03;;;22.10;1.00;;;;;;2610815;54;20423;-64
2024/04/10 07:38:41;;;;;;;92.50;87.10;;;22.20;1.00;;;;;;2610546;54;20464;-64
2024/04/10 07:41:07;;;;;;;91.90;86.50;;;22.20;1.00;;;;;;2611742;47;20426;-64
2024/04/10 07:43:36;;;;;;;91.40;86.10;;;22.20;1.00;;;;;;2613045;47;20432;-65
2024/04/10 07:46:12;;;;;;;90.40;85.10;;;22.20;1.00;;;;;;2610937;54;20450;-64
2024/04/10 07:48:39;;;;;;;91.93;86.57;;;22.20;1.00;;;;;;2614630;39;20806;-64
2024/04/10 07:51:09;;;;;;;91.60;86.20;;;22.20;1.00;;;;;;2610158;47;20447;-64
2024/04/10 07:53:39;;;;;;;92.17;86.77;;;22.20;1.00;;;;;;2610975;54;20464;-63
2024/04/10 07:56:07;;;;;;;91.47;86.13;;;22.20;1.00;;;;;;2610636;47;21266;-64
2024/04/10 07:58:34;;;;;;;91.60;86.20;;;22.20;1.00;;;;;;2610734;39;20810;-64
2024/04/10 08:01:00;;;;;;;90.40;85.30;;;22.20;1.00;;;;;;2608980;54;21009;-64
2024/04/10 08:03:28;;;;;;;89.13;84.13;;;22.30;1.00;;;;;;2610697;54;20953;-64
2024/04/10 08:05:54;;;;;;;91.73;86.43;;;22.30;1.00;;;;;;2610509;54;20446;-64
2024/04/10 08:08:20;;;;;;;88.80;83.80;;;22.30;1.00;;;;;;2611563;31;21013;-64
2024/04/10 08:10:47;;;;;;;90.00;84.90;;;22.30;1.00;;;;;;2610514;31;20897;-64
2024/04/10 08:13:14;;;;;;;89.00;84.00;;;22.30;1.00;;;;;;2610022;51;20434;-64
2024/04/10 08:15:41;;;;;;;89.33;84.33;;;22.30;1.00;;;;;;2610458;54;20419;-65
2024/04/10 08:18:06;;;;;;;90.07;84.97;;;22.30;1.00;;;;;;2609731;47;20453;-64
2024/04/10 08:20:32;;;;;;;88.47;83.57;;;22.20;1.00;;;;;;2610539;54;20411;-64
2024/04/10 08:22:58;;;;;;;89.50;84.50;;;22.30;1.00;;;;;;2610244;54;20209;-64
2024/04/10 08:25:30;;;;;;;89.87;84.77;;;22.20;1.00;;;;;;2610368;54;20170;-67
2024/04/10 08:27:56;;;;;;;90.03;84.93;;;22.20;1.00;;;;;;2610585;54;20431;-60
2024/04/10 08:30:22;;;;;;;90.20;85.00;;;22.20;1.00;;;;;;2610895;50;20546;-61
2024/04/10 08:32:48;;;;;;;90.13;84.93;;;22.20;1.00;;;;;;2610152;50;20456;-60
2024/04/10 08:35:13;;;;;;;89.00;83.90;;;22.20;1.00;;;;;;2610717;47;20195;-62
2024/04/10 08:37:39;;;;;;;89.47;84.30;;;22.20;1.00;;;;;;2610666;39;20579;-66
2024/04/10 08:40:06;;;;;;;90.10;84.83;;;22.30;1.00;;;;;;2610342;54;20719;-66
2024/04/10 08:42:35;;;;;;;90.20;85.00;;;22.20;1.00;;;;;;2612740;50;20167;-67
2024/04/10 08:45:01;;;;;;;90.70;85.40;;;22.30;1.00;;;;;;2613644;54;20435;-66
2024/04/10 08:47:29;;;;;;;90.33;85.03;;;22.30;1.00;;;;;;2612955;54;20531;-67
2024/04/10 08:49:57;;;;;;;89.80;84.60;;;22.30;1.00;;;;;;2609924;47;20422;-66
2024/04/10 08:52:25;;;;;;;89.60;84.40;;;22.30;1.00;;;;;;2610005;47;20427;-66
2024/04/10 08:54:50;;;;;;;91.17;85.87;;;22.30;1.00;;;;;;2609318;47;20498;-66
2024/04/10 08:57:16;;;;;;;91.47;86.07;;;22.30;1.00;;;;;;2609715;54;20424;-65
2024/04/10 08:59:42;;;;;;;90.00;84.80;;;22.30;1.00;;;;;;2609030;47;20167;-66
2024/04/10 09:02:07;;;;;;;91.90;86.50;;;22.30;1.00;;;;;;2610087;49;20238;-66
2024/04/10 09:04:42;;;;;;;91.70;86.20;;;22.30;1.00;;;;;;2609343;47;20258;-67
2024/04/10 09:07:08;;;;;;;91.83;86.43;;;22.30;1.00;;;;;;2610026;47;20162;-61
2024/04/10 09:09:33;;;;;;;90.83;85.53;;;22.30;1.00;;;;;;2610185;47;21377;-61
2024/04/10 09:11:59;;;;;;;90.60;85.30;;;22.30;1.00;;;;;;2609300;47;20154;-62
2024/04/10 09:14:27;;;;;;;91.60;86.20;;;22.40;1.00;;;;;;2610875;54;20154;-62
2024/04/10 09:17:00;;;;;;;91.50;86.20;;;22.40;1.00;;;;;;2610171;51;20174;-62
2024/04/10 09:19:26;;;;;;;90.80;85.50;;;22.40;1.00;;;;;;2611657;54;20392;-62
2024/04/10 09:21:59;;;;;;;91.50;86.10;;;22.50;1.00;;;;;;2611627;54;20430;-62
2024/04/10 09:24:29;;;;;;;90.90;85.60;;;22.70;1.00;;;;;;2609567;54;20169;-62
2024/04/10 09:26:56;;;;;;;90.87;85.57;;;22.90;1.00;;;;;;2609694;54;20451;-62
2024/04/10 09:29:28;;;;;;;91.27;85.97;;;23.00;1.00;;;;;;2609411;54;20427;-62
2024/04/10 09:31:58;;;;;;;91.30;86.00;;;23.20;1.00;;;;;;2610115;39;20794;-62
2024/04/10 09:34:25;;;;;;;90.47;85.17;;;23.50;1.00;;;;;;2609539;39;20775;-64
2024/04/10 09:36:51;;;;;;;91.50;86.10;;;23.70;1.00;;;;;;2609474;54;20416;-64
2024/04/10 09:39:22;;;;;;;91.10;85.80;;;23.90;1.00;;;;;;2609732;47;20447;-64
2024/04/10 09:41:53;;;;;;;91.87;86.47;;;24.00;1.00;;;;;;2609680;54;20430;-65
2024/04/10 09:44:23;;;;;;;91.40;86.00;;;24.20;1.00;;;;;;2610324;54;20428;-64
2024/04/10 09:46:58;;;;;;;91.00;85.70;;;24.30;1.00;;;;;;2609038;54;20426;-67
2024/04/10 09:49:28;;;;;;;92.00;86.60;;;24.40;1.00;;;;;;2608466;54;20411;-67
2024/04/10 09:52:01;;;;;;;93.20;87.60;;;24.50;1.00;;;;;;2609561;54;21051;-67
2024/04/10 09:54:27;;;;;;;94.33;88.73;;;24.60;1.00;;;;;;2610453;39;20802;-67
2024/04/10 09:56:56;;;;;;;92.33;86.90;;;24.70;1.00;;;;;;2609356;54;20403;-67
2024/04/10 09:59:22;;;;;;;93.73;88.13;;;24.80;1.00;;;;;;2608726;54;20956;-66
2024/04/10 10:01:48;;;;;;;92.90;87.30;;;25.00;1.00;;;;;;2609687;54;20419;-67
2024/04/10 10:04:14;;;;;;;91.20;85.80;;;25.10;1.00;;;;;;2610021;54;20399;-66
2024/04/10 10:06:40;;;;;;;94.20;88.60;;;25.30;1.00;;;;;;2610297;47;20518;-67
2024/04/10 10:09:06;;;;;;;93.17;87.60;;;25.40;1.00;;;;;;2609806;54;21184;-67
2024/04/10 10:11:32;;;;;;;93.50;87.97;;;25.70;1.00;;;;;;2609935;54;20234;-67
2024/04/10 10:13:58;;;;;;;93.40;87.90;;;25.90;1.00;;;;;;2609937;54;20418;-67
2024/04/10 10:16:25;;;;;;;93.40;87.90;;;26.10;1.00;;;;;;2610023;54;20177;-69
2024/04/10 10:18:59;;;;;;;92.10;86.70;;;26.30;1.00;;;;;;2609258;51;20431;-69
2024/04/10 10:21:25;;;;;;;91.63;86.17;;;26.30;1.00;;;;;;2610163;54;20442;-69
2024/04/10 10:24:00;;;;;;;91.47;86.07;;;26.30;1.00;;;;;;2609437;54;20424;-69
2024/04/10 10:26:27;;;;;;;93.67;88.17;;;26.30;1.00;;;;;;2611162;39;20843;-69
2024/04/10 10:29:02;;;;;;;92.90;87.40;;;26.20;1.00;;;;;;2610011;54;20416;-69
2024/04/10 10:31:28;;;;;;;93.40;87.90;;;26.20;1.00;;;;;;2609834;54;20483;-69
2024/04/10 10:34:04;;;;;;;93.90;88.30;;;26.10;1.00;;;;;;2610160;54;20411;-69
2024/04/10 10:36:36;;;;;;;94.23;88.63;;;26.00;1.00;;;;;;2609881;54;20174;-69
2024/04/10 10:39:05;;;;;;;92.63;87.23;;;26.00;1.00;;;;;;2610255;54;20428;-69
2024/04/10 10:41:30;;;;;;;93.50;87.90;;;26.10;1.00;;;;;;2610461;39;20813;-69
2024/04/10 10:43:59;;;;;;;93.00;87.50;;;26.20;1.00;;;;;;2610394;54;20419;-69
2024/04/10 10:46:25;;;;;;;93.47;87.87;;;26.30;1.00;;;;;;2610947;47;20167;-69
2024/04/10 10:48:51;;;;;;;92.90;87.50;;;26.50;1.00;;;;;;2614161;54;20407;-69
2024/04/10 10:51:20;;;;;;;93.23;87.63;;;26.70;1.00;;;;;;2610709;54;20147;-69
2024/04/10 10:53:50;;;;;;;93.10;87.60;;;26.90;1.00;;;;;;2610991;47;20195;-69
2024/04/10 10:56:28;;;;;;;93.30;87.70;;;27.00;1.00;;;;;;2611049;39;20812;-65
2024/04/10 10:58:54;;;;;;;93.60;88.10;;;27.10;1.00;;;;;;2609224;47;20510;-65
2024/04/10 11:01:20;;;;;;;93.80;88.23;;;27.20;1.00;;;;;;2610309;54;20427;-64
2024/04/10 11:03:48;;;;;;;94.10;88.50;;;26.80;1.00;;;;;;2609722;54;20941;-64
2024/04/10 11:06:16;;;;;;;95.10;89.50;;;26.20;1.00;;;;;;2610332;39;20952;-65
2024/04/10 11:08:42;;;;;;;93.50;88.00;;;26.30;1.00;;;;;;2611073;54;20411;-65
2024/04/10 11:11:16;;;;;;;95.20;89.40;;;26.60;1.00;;;;;;2610692;54;20857;-65
2024/04/10 11:13:50;;;;;;;94.23;88.63;;;26.70;1.00;;;;;;2610385;54;21031;-65
2024/04/10 11:16:31;;;;;;;95.00;89.40;;;26.90;1.00;;;;;;2611263;39;20705;-65
2024/04/10 11:18:57;;;;;;;93.40;87.90;;;27.00;1.00;;;;;;2610313;54;20490;-65
2024/04/10 11:21:24;;;;;;;93.73;88.23;;;27.20;1.00;;;;;;2610782;54;21352;-64
2024/04/10 11:23:50;;;;;;;93.83;88.23;;;27.30;1.00;;;;;;2611115;54;20514;-65
2024/04/10 11:26:15;;;;;;;94.90;89.30;;;27.50;1.00;;;;;;2611392;54;20427;-70
2024/04/10 11:28:43;;;;;;;93.97;88.47;;;27.60;1.00;;;;;;2611042;54;20664;-70
2024/04/10 11:31:10;;;;;;;93.23;87.73;;;27.80;1.00;;;;;;2611379;54;20159;-70
2024/04/10 11:33:36;;;;;;;92.93;87.53;;;27.90;1.00;;;;;;2611383;54;20416;-70
2024/04/10 11:36:03;;;;;;;94.23;88.63;;;28.00;1.00;;;;;;2614256;54;20424;-70
2024/04/10 11:38:29;;;;;;;93.83;88.33;;;28.00;1.00;;;;;;2613850;46;20469;-70
2024/04/10 11:40:55;;;;;;;93.63;88.10;;;28.10;1.00;;;;;;2612694;54;20400;-69
2024/04/10 11:43:21;;;;;;;94.30;88.70;;;28.10;1.00;;;;;;2611670;54;20440;-70
2024/04/10 11:45:46;;;;;;;92.80;87.40;;;28.10;1.00;;;;;;2611105;54;20991;-70
2024/04/10 11:48:12;;;;;;;100.83;94.70;;;28.10;1.00;;;;;;2610918;54;20249;-70
2024/04/10 11:50:38;;;;;;;93.97;88.37;;;28.10;1.00;;;;;;2609456;54;20158;-70
2024/04/10 11:53:04;;;;;;;92.40;87.00;;;28.00;1.00;;;;;;2609325;54;20197;-70
2024/04/10 11:55:30;;;;;;;92.03;86.63;;;28.10;1.00;;;;;;2610291;39;21056;-69
2024/04/10 11:57:56;;;;;;;93.60;88.10;;;28.20;1.00;;;;;;2609940;39;20588;-70
2024/04/10 12:00:22;;;;;;;94.03;88.53;;;28.30;1.00;;;;;;2610422;54;21029;-70
2024/04/10 12:02:48;;;;;;;93.70;88.20;;;28.50;1.00;;;;;;2610319;54;20294;-68
2024/04/10 12:05:14;;;;;;;93.30;87.80;;;28.60;1.00;;;;;;2610535;47;20569;-69
2024/04/10 12:07:41;;;;;;;92.90;87.37;;;28.90;1.00;;;;;;2610167;54;20209;-64
2024/04/10 12:10:08;;;;;;;94.40;88.70;;;29.10;1.00;;;;;;2610110;54;20150;-64
2024/04/10 12:12:34;;;;;;;93.10;87.60;;;29.40;1.00;;;;;;2611092;54;20388;-64
2024/04/10 12:15:00;;;;;;;93.00;87.50;;;29.60;1.00;;;;;;2610202;54;20433;-64
2024/04/10 12:17:29;;;;;;;94.73;89.10;;;29.70;1.00;;;;;;2613385;54;20150;-64
2024/04/10 12:19:55;;;;;;;92.30;86.90;;;29.70;1.00;;;;;;2613699;54;20392;-64
2024/04/10 12:22:20;;;;;;;92.60;87.17;;;29.60;1.00;;;;;;2611311;54;20461;-64
2024/04/10 12:24:46;;;;;;;93.20;87.70;;;29.50;1.00;;;;;;2609351;47;20174;-64
2024/04/10 12:27:12;;;;;;;92.83;87.30;;;29.40;1.00;;;;;;2609679;54;20173;-65
2024/04/10 12:29:37;;;;;;;93.30;87.80;;;29.30;1.00;;;;;;2610040;54;20238;-64
2024/04/10 12:32:03;;;;;;;92.57;87.13;;;29.40;1.00;;;;;;2609166;47;20174;-65
2024/04/10 12:34:29;;;;;;;93.23;87.63;;;29.30;1.00;;;;;;2609992;54;20169;-64